Warning: Javascript must be enabled to use all the features on this page!


Page Loading - Please Wait...

Click to hideNews Bulletins

Peak Streamflow for the Nation

USGS 05056000 SHEYENNE RIVER NR WARWICK, ND

Eddy County, North Dakota
Hydrologic Unit Code 09020203
Latitude  47°48'20", Longitude  98°42'57" NAD27
Drainage area 2,070  square miles
Contributing drainage area 760  square miles
Gage datum 1,377.32 feet above NAVD88
Output formats
Table
Graph
Tab-separated file
peakfq (watstore) format
Reselect output format
Water
Year
Date Gage
Height
(feet)
Stream-
flow
(cfs)
1950 1950-04-17 7.45 3,800
1951 1951-04-11 5.01 1,240
1952 1952-04-08 4.17 737
1953 1953-07-03 3.08 204
1954 1954-06-19 4.38 878
1955 1955-04-03 5.04 1,330
1956 1956-04-18 7.831 4,250
1957 1957-09-05 3.17 249
1958 1958-03-03 4.04 666
1959 1959-03-21 2.83 153
1960 1960-04-07 5.571 1,450
1961 1961-03-26 2.55 81.0
1962 1962-04-01 3.50 436
1963 1963-06-25 2.68 116
1964 1964-04-09 3.13 247
1965 1965-04-12 4.64 1,000
1966 1966-03-19 7.631 3,100
1967 1967-03-31 5.24 1,340
1968 1968-03-12 3.10 211
1969 1969-04-14 7.51 4,660
1970 1970-04-10 3.52 445
1971 1971-04-12 6.55 2,360
1972 1972-03-21 5.081 1,360
1973 1973-03-13 3.10 170
1974 1974-05-24 6.14 2,030
1975 1975-04-21 6.161 1,800
1976 1976-03-31 4.70 1,090
1977 1977-05-05 2.64 66.0
1978 1978-04-05 6.101 1,440
1979 1979-04-25 7.34 2,600
1980 1980-04-03 3.81 560
1981 1981-02-24 4.011 594
1982 1982-04-04 5.38 1,420
1983 1983-03-12 5.51 1,480
1984 1984-03-28 4.78 1,030
1985 1985-03-17 3.76 579
1986 1986-03-19 5.16 1,000
1987 1987-04-05 6.002 1,730
1988 1988-03-25 2.881 151
1989 1989-04-07 4.02 710
1990 1990-06-05 2.52 66.0
1991 1991-07-02 2.71 119
1992 1992-03-07 4.53 960
1993 1993-08-01 6.00 1,470
1994 1994-03-27 5.21 1,170
1995 1995-03-21 6.941 2,0002
1996 1996-04-15 7.79 3,740
1997 1997-04-21 8.08 3,990
1998 1998-03-30 5.29 1,440
1999 1999-03-31 7.631 3,2002
2000 2000-07-14 4.61 1,030
2001 2001-04-08 5.862 1,910
2002 2002-06-29 3.61 442
2003 2003-03-27 3.72 495
2004 2004-03-31 7.26 3,480
2005 2005-07-05 4.68 958
2006 2006-04-03 5.05 1,360
2007 2007-03-26 3.90 561
2008 2008-09-27 3.33 282
2009 2009-04-16 8.43 4,930
2010 2010-04-07 6.82 2,810
2011 2011-04-11 9.29 8,200
2012 2012-03-18 3.95 590
2013 2013-05-02 7.88 4,230
2014 2014-06-04 5.21 1,410
2015 2015-05-19 4.14 724
2016 2016-08-12 4.60 493
2017 2017-04-04 7.39 2,660
2018 2018-04-23 5.31 1,030
2019 2019-04-07 5.99 1,290
2020 2020-07-09 6.05 1,400
2021 2020-10-21 4.07 295
?
  Peak Gage-Height Qualification Codes.
?
  Peak Streamflow Qualification Codes.